Time;durP1;ratioP1;P1;durP2;ratioP2;P2;SDS_P1;SDS_P2;PMS_P1;PMS_P2;Temp;Humidity;BMP_temperature;BMP_pressure;BME280_temperature;BME280_humidity;BME280_pressure;Samples;Min_cycle;Max_cycle;Signal;HPM_P1;HPM_P2
2022/04/24 00:00:21;;;;;;;7.18;2.00;;;;;;;22.36;41.05;101895.03;5033316;28;20057;-50
2022/04/24 00:02:48;;;;;;;7.28;2.47;;;;;;;22.07;40.03;101894.47;5033252;28;20108;-48
2022/04/24 00:05:14;;;;;;;5.18;2.40;;;;;;;22.27;40.48;101889.25;5033212;28;20469;-48
2022/04/24 00:07:40;;;;;;;4.90;1.95;;;;;;;21.87;40.37;101887.69;5032879;28;20036;-50
2022/04/24 00:10:07;;;;;;;6.82;2.30;;;;;;;22.34;40.34;101889.03;5033204;28;20022;-48
2022/04/24 00:12:33;;;;;;;8.07;2.38;;;;;;;21.79;42.46;101880.00;5033446;28;20354;-50
2022/04/24 00:14:59;;;;;;;8.13;2.35;;;;;;;;;;5033497;28;20104;-50
2022/04/24 00:17:25;;;;;;;10.68;2.08;;;;;;;22.22;40.10;101875.56;5033007;28;20057;-47
2022/04/24 00:19:51;;;;;;;8.63;2.90;;;;;;;22.44;40.33;101866.47;5033165;28;20022;-49
2022/04/24 00:22:17;;;;;;;5.57;2.60;;;;;;;22.70;40.84;101871.00;5032896;28;20034;-50
2022/04/24 00:24:43;;;;;;;8.52;2.80;;;;;;;22.51;39.97;101867.06;5033213;28;20117;-46
2022/04/24 00:27:12;;;;;;;6.85;2.33;;;;;;;22.69;39.36;101854.91;5031593;28;20048;-47
2022/04/24 00:29:38;;;;;;;5.82;2.10;;;;;;;22.99;39.35;101846.97;5033124;28;20044;-48
2022/04/24 00:32:05;;;;;;;6.57;2.05;;;;;;;23.06;40.14;101847.53;5033112;28;20053;-49
2022/04/24 00:34:32;;;;;;;5.47;1.70;;;;;;;22.87;37.99;101849.88;5032854;28;20386;-47
2022/04/24 00:36:58;;;;;;;7.30;2.45;;;;;;;22.51;39.72;101856.97;5032630;28;20025;-46
2022/04/24 00:39:24;;;;;;;11.60;2.97;;;;;;;22.74;39.40;101866.69;5032737;28;20029;-48
2022/04/24 00:41:52;;;;;;;8.15;2.10;;;;;;;22.78;40.58;101869.72;5032737;28;20025;-49
2022/04/24 00:44:20;;;;;;;6.85;2.13;;;;;;;22.92;40.93;101873.66;5032701;28;20026;-46
2022/04/24 00:46:52;;;;;;;11.90;2.63;;;;;;;23.01;40.82;101874.00;5032484;28;20087;-47
2022/04/24 00:49:19;;;;;;;8.77;2.17;;;;;;;23.05;41.76;101877.84;5032038;28;20033;-49
2022/04/24 00:51:46;;;;;;;2.60;1.00;;;;;;;22.89;33.63;101880.47;5032633;28;20057;-48
2022/04/24 00:54:12;;;;;;;4.53;0.85;;;;;;;22.84;34.18;101882.31;5032942;28;20025;-49
2022/04/24 00:56:41;;;;;;;3.15;0.80;;;;;;;22.70;32.44;101876.47;5033510;28;20096;-49
2022/04/24 00:59:09;;;;;;;1.30;0.50;;;;;;;22.55;32.95;101877.22;5033248;28;20033;-48
2022/04/24 01:01:37;;;;;;;1.88;0.55;;;;;;;22.63;32.19;101871.25;5032877;28;20038;-48
2022/04/24 01:04:08;;;;;;;3.13;0.77;;;;;;;22.68;33.15;101881.38;5032532;28;20408;-48
2022/04/24 01:06:39;;;;;;;1.30;0.60;;;;;;;22.59;31.83;101870.13;5032706;28;20021;-48
2022/04/24 01:09:20;;;;;;;2.85;0.77;;;;;;;22.41;32.69;101870.53;5032625;28;20034;-49
2022/04/24 01:11:49;;;;;;;2.13;0.80;;;;;;;22.26;32.03;101867.66;5032929;28;20057;-48
2022/04/24 01:14:16;;;;;;;3.28;0.65;;;;;;;22.05;32.43;101874.81;5032518;28;20021;-47
2022/04/24 01:16:44;;;;;;;2.95;0.80;;;;;;;21.84;31.65;101871.88;5032679;28;20032;-47
2022/04/24 01:19:10;;;;;;;1.58;0.60;;;;;;;21.59;33.08;101871.56;5032325;28;20045;-49
2022/04/24 01:21:39;;;;;;;1.33;0.63;;;;;;;21.58;32.03;101876.22;5030922;28;20217;-49
2022/04/24 01:24:07;;;;;;;1.42;0.65;;;;;;;21.61;31.66;101885.78;5032166;28;20021;-50
2022/04/24 01:26:34;;;;;;;0.98;0.63;;;;;;;21.34;33.35;101874.81;5032232;28;20030;-51
2022/04/24 01:29:01;;;;;;;1.70;0.60;;;;;;;21.24;34.89;101875.47;5032419;28;20048;-51
2022/04/24 01:31:28;;;;;;;3.63;0.80;;;;;;;21.07;32.94;101877.44;5032294;28;20030;-46
2022/04/24 01:33:54;;;;;;;3.47;0.80;;;;;;;20.78;32.86;101872.13;5031974;28;20373;-50
2022/04/24 01:36:21;;;;;;;1.65;0.60;;;;;;;20.76;33.37;101876.13;5032314;28;20041;-49
2022/04/24 01:38:47;;;;;;;2.17;0.57;;;;;;;20.69;32.58;101873.59;5032323;28;20187;-50
2022/04/24 01:41:13;;;;;;;2.10;0.80;;;;;;;20.63;33.06;101877.31;5032485;28;20021;-48
2022/04/24 01:43:41;;;;;;;2.30;0.75;;;;;;;20.65;31.72;101869.72;5032347;28;20025;-48
2022/04/24 01:46:08;;;;;;;1.85;0.68;;;;;;;20.23;32.23;101869.28;5032429;28;20034;-48
2022/04/24 01:48:35;;;;;;;4.72;0.70;;;;;;;20.08;34.25;101872.53;5032019;28;20097;-46
2022/04/24 01:51:03;;;;;;;1.98;0.50;;;;;;;20.14;33.86;101873.47;5032070;28;20026;-47
2022/04/24 01:53:29;;;;;;;1.65;0.60;;;;;;;20.03;34.07;101877.88;5032164;28;20029;-46
2022/04/24 01:56:00;;;;;;;3.13;0.57;;;;;;;20.03;34.47;101881.41;5031973;28;20021;-49
2022/04/24 01:58:27;;;;;;;2.90;0.45;;;;;;;20.16;33.39;101877.59;5032819;28;20026;-49
2022/04/24 02:00:54;;;;;;;2.67;0.50;;;;;;;20.17;33.00;101884.69;5034916;28;20072;-47
2022/04/24 02:03:22;;;;;;;2.72;0.60;;;;;;;20.09;33.64;101882.34;5035951;28;20021;-47
2022/04/24 02:05:48;;;;;;;1.83;0.60;;;;;;;20.06;33.61;101885.56;5035624;28;20491;-48
2022/04/24 02:08:15;;;;;;;3.28;0.93;;;;;;;19.94;33.82;101873.94;5035503;28;20033;-49
2022/04/24 02:10:42;;;;;;;2.00;0.77;;;;;;;19.87;33.88;101873.22;5035745;28;20474;-49
2022/04/24 02:13:08;;;;;;;3.60;0.82;;;;;;;19.98;32.79;101873.16;5035425;28;20056;-49
2022/04/24 02:15:35;;;;;;;1.25;0.55;;;;;;;19.86;33.33;101875.13;5035427;28;20029;-48
2022/04/24 02:18:02;;;;;;;1.90;0.57;;;;;;;20.01;33.42;101874.59;5035491;28;20099;-50
2022/04/24 02:20:31;;;;;;;2.92;0.90;;;;;;;19.75;33.84;101867.84;5035238;28;20410;-48
2022/04/24 02:22:59;;;;;;;3.15;0.95;;;;;;;19.72;34.58;101880.03;5035256;28;20371;-46
2022/04/24 02:25:26;;;;;;;1.80;0.90;;;;;;;19.63;34.28;101867.88;5035282;28;20022;-49
2022/04/24 02:27:53;;;;;;;2.67;1.00;;;;;;;19.58;34.35;101870.47;5034983;28;20060;-49
2022/04/24 02:30:24;;;;;;;2.38;0.75;;;;;;;19.51;33.97;101867.06;5035747;28;20470;-49
2022/04/24 02:32:51;;;;;;;1.40;0.60;;;;;;;19.54;34.23;101866.56;5035452;28;20466;-49
2022/04/24 02:35:18;;;;;;;3.08;0.98;;;;;;;19.54;34.75;101869.28;5035157;28;20079;-47
2022/04/24 02:37:44;;;;;;;2.50;0.70;;;;;;;19.28;35.53;101867.13;5035131;28;20098;-46
2022/04/24 02:40:11;;;;;;;1.70;0.77;;;;;;;19.32;33.93;101873.72;5034822;28;20032;-46
2022/04/24 02:42:38;;;;;;;3.28;1.23;;;;;;;19.16;34.77;101870.69;5034844;28;20044;-47
2022/04/24 02:45:09;;;;;;;4.97;0.70;;;;;;;19.07;34.86;101869.41;5034684;28;20029;-49
2022/04/24 02:47:38;;;;;;;5.32;2.00;;;;;;;18.99;35.85;101867.88;5034837;28;20385;-49
2022/04/24 02:50:05;;;;;;;7.43;5.82;;;;;;;18.91;35.26;101870.13;5034808;28;20025;-50
2022/04/24 02:52:31;;;;;;;12.68;8.25;;;;;;;18.70;36.18;101872.34;5034754;28;20044;-48
2022/04/24 02:54:57;;;;;;;4.30;2.47;;;;;;;18.71;35.84;101871.31;5034762;28;20108;-47
2022/04/24 02:57:24;;;;;;;3.05;1.05;;;;;;;18.65;35.22;101872.19;5034779;28;20026;-47
2022/04/24 02:59:50;;;;;;;2.22;0.93;;;;;;;18.46;36.57;101870.66;5034574;28;20145;-49
2022/04/24 03:02:17;;;;;;;3.85;1.10;;;;;;;18.44;35.62;101873.59;5034398;28;20017;-46
2022/04/24 03:04:45;;;;;;;4.55;1.60;;;;;;;18.18;36.21;101869.41;5034391;28;20105;-47
2022/04/24 03:07:12;;;;;;;3.22;0.77;;;;;;;17.98;36.72;101881.59;5034374;28;20413;-47
2022/04/24 03:09:39;;;;;;;3.90;1.00;;;;;;;18.00;36.36;101882.19;5034635;28;20029;-49
2022/04/24 03:12:06;;;;;;;3.85;1.00;;;;;;;17.88;36.69;101876.75;5033926;28;20029;-47
2022/04/24 03:14:32;;;;;;;3.20;1.30;;;;;;;17.96;36.02;101886.41;5034480;28;20029;-50
2022/04/24 03:16:58;;;;;;;2.40;1.05;;;;;;;17.84;36.63;101887.19;5034344;28;20469;-49
2022/04/24 03:19:25;;;;;;;3.63;1.13;;;;;;;17.91;36.60;101885.22;5034563;28;20036;-48
2022/04/24 03:21:51;;;;;;;3.05;0.90;;;;;;;17.85;36.72;101888.00;5034390;28;20541;-48
2022/04/24 03:24:17;;;;;;;2.30;1.20;;;;;;;17.83;36.81;101890.13;5034097;28;20492;-47
2022/04/24 03:26:43;;;;;;;3.25;1.05;;;;;;;17.83;37.52;101892.84;5034130;28;20413;-47
2022/04/24 03:29:10;;;;;;;3.72;1.00;;;;;;;17.64;38.29;101895.53;5033776;28;20080;-46
2022/04/24 03:31:36;;;;;;;1.67;0.90;;;;;;;17.68;37.74;101898.63;5033902;28;20028;-47
2022/04/24 03:34:02;;;;;;;1.88;1.00;;;;;;;17.71;37.47;101890.03;5033881;28;20017;-49
2022/04/24 03:36:28;;;;;;;2.70;1.15;;;;;;;17.59;37.90;101884.56;5033841;28;20053;-46
2022/04/24 03:38:54;;;;;;;3.38;1.00;;;;;;;17.52;38.73;101878.41;5033886;28;20188;-46
2022/04/24 03:41:21;;;;;;;1.52;0.80;;;;;;;17.64;38.48;101884.69;5033635;28;20022;-50
2022/04/24 03:43:47;;;;;;;3.20;0.90;;;;;;;17.37;39.22;101883.34;5034655;28;20026;-49
2022/04/24 03:46:13;;;;;;;2.92;0.85;;;;;;;17.14;39.36;101884.03;5034420;28;20029;-49
2022/04/24 03:48:39;;;;;;;2.58;0.90;;;;;;;17.14;39.50;101887.56;5033347;28;20026;-49
2022/04/24 03:51:07;;;;;;;3.00;1.20;;;;;;;17.17;39.90;101889.00;5033660;28;20104;-49
2022/04/24 03:53:33;;;;;;;2.65;1.20;;;;;;;17.02;40.81;101897.47;5033495;28;20029;-48
2022/04/24 03:56:00;;;;;;;3.88;1.73;;;;;;;16.98;41.31;101898.13;5033670;28;20053;-49
2022/04/24 03:58:26;;;;;;;5.05;1.60;;;;;;;16.50;42.65;101907.66;5033506;28;20389;-46
2022/04/24 04:00:52;;;;;;;4.75;1.80;;;;;;;17.11;41.98;101915.06;5033266;28;20179;-48
2022/04/24 04:03:18;;;;;;;4.57;1.80;;;;;;;16.70;42.95;101909.38;5034203;28;20100;-49
2022/04/24 04:05:44;;;;;;;5.07;1.60;;;;;;;16.50;43.42;101909.53;5033386;28;20025;-49
2022/04/24 04:08:11;;;;;;;5.18;1.88;;;;;;;16.50;43.30;101915.78;5033269;28;20118;-46
2022/04/24 04:10:37;;;;;;;5.07;1.60;;;;;;;15.86;45.24;101914.06;5033445;28;20469;-46
2022/04/24 04:13:07;;;;;;;4.55;1.38;;;;;;;15.93;45.26;101917.56;5033602;28;20036;-49
2022/04/24 04:15:35;;;;;;;3.67;1.60;;;;;;;15.67;46.50;101918.53;5032938;28;20033;-49
2022/04/24 04:18:02;;;;;;;5.05;1.30;;;;;;;15.81;45.82;101921.97;5033178;28;20026;-47
2022/04/24 04:20:28;;;;;;;3.90;1.35;;;;;;;15.49;46.30;101919.19;5033133;28;20099;-47
2022/04/24 04:22:55;;;;;;;3.60;1.17;;;;;;;15.17;47.91;101922.78;5032521;28;20034;-49
2022/04/24 04:25:26;;;;;;;5.80;1.58;;;;;;;15.49;46.42;101926.41;5032825;28;20022;-48
2022/04/24 04:27:53;;;;;;;3.60;1.60;;;;;;;15.63;45.40;101928.06;5033063;28;20053;-45
2022/04/24 04:30:20;;;;;;;2.53;1.40;;;;;;;15.55;45.71;101933.69;5032860;28;20028;-48
2022/04/24 04:32:46;;;;;;;3.75;1.50;;;;;;;15.57;46.30;101926.19;5032902;28;20033;-46
2022/04/24 04:35:13;;;;;;;3.13;1.27;;;;;;;15.48;46.28;101928.28;5032893;28;20021;-49
2022/04/24 04:37:40;;;;;;;4.95;1.35;;;;;;;15.14;46.74;101934.78;5032858;28;20029;-47
2022/04/24 04:40:08;;;;;;;2.03;1.17;;;;;;;15.31;46.74;101937.88;5032960;28;20470;-45
2022/04/24 04:42:34;;;;;;;2.78;1.60;;;;;;;15.28;46.94;101941.00;5032788;28;20064;-45
2022/04/24 04:45:00;;;;;;;3.55;1.65;;;;;;;15.36;47.20;101938.06;5032924;28;20096;-46
2022/04/24 04:47:31;;;;;;;5.18;1.65;;;;;;;15.30;47.21;101933.53;5032778;28;20026;-49
2022/04/24 04:49:57;;;;;;;9.15;2.30;;;;;;;15.37;51.21;101947.00;5033259;28;20021;-48
2022/04/24 04:52:23;;;;;;;15.15;2.85;;;;;;;15.36;54.80;101948.88;5032770;28;20075;-48
2022/04/24 04:54:50;;;;;;;15.48;3.83;;;;;;;15.17;57.49;101945.19;5032579;28;20022;-49
2022/04/24 04:57:16;;;;;;;15.13;3.20;;;;;;;15.27;57.28;101942.88;5032634;28;20049;-48
2022/04/24 04:59:43;;;;;;;14.85;3.45;;;;;;;15.16;58.40;101948.09;5031353;28;20101;-47
2022/04/24 05:02:09;;;;;;;11.90;3.40;;;;;;;15.01;58.52;101946.44;5032714;28;20068;-46
2022/04/24 05:04:36;;;;;;;14.77;3.45;;;;;;;14.76;59.78;101953.47;5032583;28;20103;-47
2022/04/24 05:07:02;;;;;;;15.02;3.30;;;;;;;14.79;59.68;101950.38;5032432;28;20021;-48
2022/04/24 05:09:28;;;;;;;15.13;4.05;;;;;;;14.93;59.36;101946.63;5032605;28;20056;-49
2022/04/24 05:11:54;;;;;;;10.57;2.80;;;;;;;14.92;58.36;101944.97;5032245;28;20429;-47
2022/04/24 05:14:21;;;;;;;12.88;2.92;;;;;;;14.63;60.68;101948.06;5032693;28;20049;-49
2022/04/24 05:16:47;;;;;;;16.13;3.38;;;;;;;14.76;60.06;101940.81;5032552;28;20076;-49
2022/04/24 05:19:13;;;;;;;10.65;3.30;;;;;;;14.63;60.09;101940.00;5032281;28;20024;-48
2022/04/24 05:21:39;;;;;;;13.23;3.35;;;;;;;14.45;61.64;101940.56;5032369;28;20497;-49
2022/04/24 05:24:06;;;;;;;11.43;3.28;;;;;;;14.49;61.56;101941.84;5032557;28;20025;-50
2022/04/24 05:26:32;;;;;;;13.57;2.78;;;;;;;14.57;61.31;101941.66;5032759;28;20541;-48
2022/04/24 05:28:58;;;;;;;14.18;3.10;;;;;;;14.50;61.89;101935.44;5032157;28;20059;-48
2022/04/24 05:31:25;;;;;;;12.57;2.80;;;;;;;14.34;61.83;101933.91;5032136;28;20036;-44
2022/04/24 05:33:51;;;;;;;11.60;3.50;;;;;;;14.05;60.31;101934.22;5032314;28;20021;-48
2022/04/24 05:36:17;;;;;;;11.93;2.80;;;;;;;13.95;59.38;101927.38;5035731;28;20064;-48
2022/04/24 05:38:44;;;;;;;11.55;2.83;;;;;;;13.87;60.08;101930.25;5036110;28;20032;-48
2022/04/24 05:41:10;;;;;;;13.68;3.40;;;;;;;13.86;60.88;101933.16;5035902;28;20531;-49
2022/04/24 05:43:37;;;;;;;13.73;3.33;;;;;;;13.97;62.65;101919.94;5036068;28;20026;-47
2022/04/24 05:46:03;;;;;;;18.30;3.30;;;;;;;13.92;62.51;101921.56;5035858;28;20055;-48
2022/04/24 05:48:29;;;;;;;11.02;3.03;;;;;;;13.92;61.03;101927.78;5036295;28;20036;-47
2022/04/24 05:50:55;;;;;;;5.88;2.47;;;;;;;13.93;59.86;101932.13;5036206;28;20104;-46
2022/04/24 05:53:21;;;;;;;12.20;3.08;;;;;;;13.96;58.96;101931.72;5035753;28;20029;-49
2022/04/24 05:55:48;;;;;;;10.57;2.67;;;;;;;14.04;60.64;101935.28;5035542;28;20120;-45
2022/04/24 05:58:14;;;;;;;12.77;3.83;;;;;;;13.94;63.57;101935.69;5036092;28;20169;-46
2022/04/24 06:00:40;;;;;;;13.80;4.07;;;;;;;13.93;63.48;101926.75;5035623;28;20025;-47
2022/04/24 06:03:07;;;;;;;14.82;3.50;;;;;;;13.87;64.77;101935.63;5035673;28;20037;-46
2022/04/24 06:05:33;;;;;;;15.15;4.18;;;;;;;14.07;64.27;101935.72;5035550;28;20034;-47
2022/04/24 06:07:59;;;;;;;14.90;3.72;;;;;;;13.88;64.92;101925.69;5035434;28;20175;-45
2022/04/24 06:10:26;;;;;;;14.45;3.17;;;;;;;13.44;63.30;101929.66;5035677;28;20075;-46
2022/04/24 06:12:56;;;;;;;7.93;2.85;;;;;;;13.59;62.23;101934.88;5035524;28;20408;-49
2022/04/24 06:15:28;;;;;;;12.77;2.55;;;;;;;13.41;62.06;101936.22;5035455;28;20060;-47
2022/04/24 06:17:57;;;;;;;11.23;2.70;;;;;;;12.61;62.03;101934.78;5035208;28;20025;-48
2022/04/24 06:20:25;;;;;;;11.23;2.67;;;;;;;12.45;63.09;101939.59;5035943;28;20534;-46
2022/04/24 06:22:57;;;;;;;11.63;2.47;;;;;;;12.45;64.14;101939.59;5035567;28;20034;-46
2022/04/24 06:25:24;;;;;;;11.68;2.67;;;;;;;12.40;62.74;101932.94;5035298;28;20025;-48
2022/04/24 06:27:51;;;;;;;10.63;2.40;;;;;;;12.39;62.59;101928.59;5035551;28;20064;-46
2022/04/24 06:30:20;;;;;;;10.18;2.38;;;;;;;12.64;61.96;101928.19;5035905;28;20033;-47
2022/04/24 06:32:46;;;;;;;6.50;2.30;;;;;;;12.31;63.71;101917.94;5035164;28;20022;-48
2022/04/24 06:35:14;;;;;;;8.30;2.25;;;;;;;11.93;64.13;101927.22;5036012;28;20044;-49
2022/04/24 06:37:49;;;;;;;8.75;2.25;;;;;;;11.69;63.99;101921.13;5034909;28;20061;-46
2022/04/24 06:40:17;;;;;;;6.55;2.03;;;;;;;11.47;64.78;101916.72;5035071;28;20022;-46
2022/04/24 06:42:59;;;;;;;6.68;1.83;;;;;;;11.45;64.87;101918.75;5029050;28;20034;-48
2022/04/24 06:45:43;;;;;;;7.55;1.90;;;;;;;11.87;63.74;101908.19;5034799;28;20029;-46
2022/04/24 06:48:10;;;;;;;8.93;2.95;;;;;;;11.91;64.59;101916.69;5034223;28;20389;-48
2022/04/24 06:50:38;;;;;;;11.45;2.17;;;;;;;11.54;65.54;101915.78;5034789;28;20024;-45
2022/04/24 06:53:06;;;;;;;9.10;1.80;;;;;;;11.42;65.20;101913.75;5034558;28;20030;-46
2022/04/24 06:55:38;;;;;;;6.45;1.75;;;;;;;11.18;65.96;101913.00;5035357;28;20048;-45
2022/04/24 06:58:06;;;;;;;7.88;2.00;;;;;;;11.29;66.03;101901.84;5034649;28;20385;-47
2022/04/24 07:00:36;;;;;;;13.85;2.90;;;;;;;11.25;67.11;101913.09;5034484;28;20108;-48
2022/04/24 07:03:13;;;;;;;7.60;2.10;;;;;;;11.39;67.03;101901.56;5034519;28;20057;-46
2022/04/24 07:05:42;;;;;;;6.38;2.30;;;;;;;11.48;66.24;101902.28;5034603;28;20049;-49
2022/04/24 07:08:09;;;;;;;10.00;2.33;;;;;;;11.45;65.60;101905.34;5034448;28;20539;-49
2022/04/24 07:10:38;;;;;;;9.35;2.17;;;;;;;11.48;65.56;101910.34;5034353;28;20489;-45
2022/04/24 07:13:06;;;;;;;6.35;2.00;;;;;;;11.53;65.28;101903.41;5034382;28;20327;-49
2022/04/24 07:15:35;;;;;;;5.78;1.92;;;;;;;11.40;65.51;101899.72;5034273;28;20045;-49
2022/04/24 07:18:02;;;;;;;6.05;2.33;;;;;;;11.37;65.96;101907.09;5034543;28;20068;-49
2022/04/24 07:20:29;;;;;;;8.30;2.47;;;;;;;11.26;66.24;101901.38;5034145;28;20029;-46
2022/04/24 07:23:05;;;;;;;6.63;2.13;;;;;;;11.27;66.37;101909.25;5034083;28;20029;-46
2022/04/24 07:25:39;;;;;;;7.60;2.30;;;;;;;11.06;66.90;101906.44;5034273;28;20032;-49
2022/04/24 07:28:05;;;;;;;7.07;1.98;;;;;;;10.98;67.38;101911.88;5033782;28;20041;-46
2022/04/24 07:30:31;;;;;;;12.23;2.65;;;;;;;11.04;67.18;101900.41;5034351;28;20079;-46
2022/04/24 07:32:59;;;;;;;8.45;2.05;;;;;;;11.23;65.95;101896.38;5033961;28;20029;-47
2022/04/24 07:35:28;;;;;;;5.97;2.05;;;;;;;11.17;65.47;101897.13;5033767;28;20037;-47
2022/04/24 07:37:54;;;;;;;8.95;1.75;;;;;;;11.09;65.70;101908.75;5033724;28;20056;-47
2022/04/24 07:40:23;;;;;;;8.15;1.77;;;;;;;10.95;65.80;101920.28;5034070;28;20033;-45
2022/04/24 07:42:59;;;;;;;6.15;1.65;;;;;;;10.79;66.85;101911.38;5033795;28;20354;-46
2022/04/24 07:45:31;;;;;;;6.00;1.90;;;;;;;10.94;66.51;101914.09;5033523;28;20045;-48
2022/04/24 07:47:58;;;;;;;7.57;2.10;;;;;;;11.01;66.57;101917.72;5033734;28;20021;-45
2022/04/24 07:50:30;;;;;;;9.35;1.90;;;;;;;11.16;65.93;101919.56;5033558;28;20035;-49
2022/04/24 07:52:57;;;;;;;7.95;2.10;;;;;;;10.83;66.68;101918.06;5033818;28;20021;-46
2022/04/24 07:55:24;;;;;;;10.82;2.00;;;;;;;10.67;67.95;101922.72;5033392;28;20108;-49
2022/04/24 07:57:57;;;;;;;6.93;2.08;;;;;;;10.96;66.76;101917.41;5033195;28;20029;-46
2022/04/24 08:00:29;;;;;;;4.53;1.83;;;;;;;11.13;66.10;101926.13;5033488;28;20013;-45
2022/04/24 08:03:02;;;;;;;6.97;1.80;;;;;;;11.26;65.75;101925.50;5033663;28;20029;-45
2022/04/24 08:05:28;;;;;;;7.28;2.08;;;;;;;11.08;66.35;101923.16;5033613;28;20075;-45
2022/04/24 08:07:56;;;;;;;6.03;2.20;;;;;;;11.17;66.26;101919.41;5033140;28;20034;-48
2022/04/24 08:10:24;;;;;;;12.23;2.50;;;;;;;11.20;66.54;101915.50;5033109;28;20021;-46
2022/04/24 08:12:51;;;;;;;13.88;2.90;;;;;;;11.33;68.76;101918.41;5033087;28;20101;-47
2022/04/24 08:15:18;;;;;;;13.20;2.85;;;;;;;11.43;68.90;101918.09;5032051;28;20030;-46
2022/04/24 08:17:44;;;;;;;9.82;2.55;;;;;;;11.28;69.47;101918.13;5033080;28;20029;-47
2022/04/24 08:20:13;;;;;;;8.90;2.33;;;;;;;11.20;69.29;101908.28;5033144;28;20025;-48
2022/04/24 08:22:51;;;;;;;10.32;2.75;;;;;;;11.24;69.48;101912.28;5032890;28;20432;-47
2022/04/24 08:25:24;;;;;;;12.20;3.38;;;;;;;11.09;69.79;101908.75;5033168;28;20543;-45
2022/04/24 08:27:52;;;;;;;11.52;3.03;;;;;;;10.92;69.54;101915.28;5032643;28;20054;-48
2022/04/24 08:30:20;;;;;;;8.68;2.00;;;;;;;11.25;68.36;101900.53;5032863;28;20040;-46
2022/04/24 08:32:47;;;;;;;10.82;2.75;;;;;;;11.43;67.94;101902.84;5033052;28;20025;-47
2022/04/24 08:35:15;;;;;;;11.40;3.42;;;;;;;11.46;68.94;101896.28;5032892;28;20029;-46
2022/04/24 08:37:43;;;;;;;12.05;3.05;;;;;;;11.69;68.90;101897.00;5032992;28;20503;-49
2022/04/24 08:40:12;;;;;;;12.02;3.03;;;;;;;11.49;69.07;101901.25;5032882;28;20034;-48
2022/04/24 08:42:40;;;;;;;11.75;2.80;;;;;;;11.46;68.65;101907.00;5032751;28;20560;-45
2022/04/24 08:45:09;;;;;;;9.73;3.25;;;;;;;11.44;68.55;101899.16;5032715;28;20478;-46
2022/04/24 08:47:36;;;;;;;13.10;3.13;;;;;;;11.51;68.30;101899.25;5032715;28;20022;-45
2022/04/24 08:50:03;;;;;;;10.07;3.25;;;;;;;11.51;68.61;101894.72;5032786;28;20446;-45
2022/04/24 08:52:30;;;;;;;11.65;3.53;;;;;;;11.53;69.87;101898.03;5032795;28;20025;-48
2022/04/24 08:54:58;;;;;;;12.50;3.58;;;;;;;11.54;69.01;101890.81;5032514;28;20026;-49
2022/04/24 08:57:26;;;;;;;10.60;2.90;;;;;;;11.28;68.43;101897.50;5032633;28;20022;-47
2022/04/24 08:59:54;;;;;;;8.85;2.13;;;;;;;11.21;67.87;101893.03;5032650;28;20516;-49
2022/04/24 09:02:20;;;;;;;11.35;2.70;;;;;;;11.25;67.16;101895.19;5032755;28;20033;-48
2022/04/24 09:04:47;;;;;;;6.60;2.10;;;;;;;11.23;67.34;101883.81;5032888;28;20145;-46
2022/04/24 09:07:17;;;;;;;15.88;2.78;;;;;;;11.33;67.06;101891.59;5032428;28;20034;-46
2022/04/24 09:09:46;;;;;;;11.77;2.63;;;;;;;11.27;67.45;101887.81;5033339;28;20025;-48
2022/04/24 09:12:14;;;;;;;9.93;2.90;;;;;;;11.30;67.93;101878.53;5036393;28;20037;-46
2022/04/24 09:14:40;;;;;;;10.43;3.45;;;;;;;11.47;69.08;101876.50;5037175;28;20030;-46
2022/04/24 09:17:20;;;;;;;15.40;3.53;;;;;;;11.56;69.10;101876.22;5037249;28;20508;-46
2022/04/24 09:19:47;;;;;;;16.00;3.67;;;;;;;11.43;68.88;101870.66;5036417;28;20140;-46
2022/04/24 09:22:14;;;;;;;14.05;4.18;;;;;;;11.45;69.32;101862.47;5036529;28;20028;-46
2022/04/24 09:24:59;;;;;;;13.18;4.05;;;;;;;11.62;69.59;101864.75;5035250;28;20379;-48
2022/04/24 09:27:32;;;;;;;13.18;4.07;;;;;;;11.65;69.69;101858.16;5036077;28;20112;-48
2022/04/24 09:30:02;;;;;;;13.80;3.55;;;;;;;11.66;69.69;101858.97;5036275;28;20025;-48
2022/04/24 09:32:30;;;;;;;12.30;3.25;;;;;;;11.66;69.80;101854.47;5036311;28;20420;-45
2022/04/24 09:34:56;;;;;;;12.68;3.85;;;;;;;11.51;70.29;101851.81;5036225;28;20397;-45
2022/04/24 09:37:23;;;;;;;17.08;4.18;;;;;;;11.56;70.18;101854.78;5035995;28;20428;-45
2022/04/24 09:39:50;;;;;;;13.00;3.80;;;;;;;11.41;71.63;101839.72;5036125;28;20083;-46
2022/04/24 09:42:18;;;;;;;13.88;3.97;;;;;;;11.56;71.01;101844.03;5036401;28;20021;-46
2022/04/24 09:44:50;;;;;;;15.93;3.47;;;;;;;11.48;71.56;101835.25;5036192;28;20078;-48
2022/04/24 09:47:25;;;;;;;16.77;4.63;;;;;;;11.49;71.57;101836.91;5035687;28;20543;-48
2022/04/24 09:49:51;;;;;;;9.48;3.40;;;;;;;11.58;70.59;101833.13;5036032;28;20481;-48
2022/04/24 09:52:19;;;;;;;12.98;4.40;;;;;;;11.46;72.09;101837.31;5035907;28;20482;-50
2022/04/24 09:54:51;;;;;;;13.55;3.92;;;;;;;11.33;72.55;101832.63;5035984;28;20025;-48
2022/04/24 09:57:19;;;;;;;15.10;4.35;;;;;;;11.32;72.87;101825.56;5036133;28;20355;-47
2022/04/24 09:59:48;;;;;;;20.55;4.25;;;;;;;11.42;72.68;101828.81;5035763;28;20105;-49
2022/04/24 10:02:18;;;;;;;17.25;4.15;;;;;;;11.45;72.77;101825.75;5035783;28;20099;-46
2022/04/24 10:04:46;;;;;;;19.23;4.57;;;;;;;11.36;73.06;101833.06;5035683;28;20061;-46
2022/04/24 10:07:14;;;;;;;15.38;4.80;;;;;;;11.33;73.56;101824.59;5035662;28;20029;-45
2022/04/24 10:09:44;;;;;;;13.32;4.38;;;;;;;11.18;73.75;101826.44;5035700;28;20480;-45
2022/04/24 10:12:19;;;;;;;14.50;4.47;;;;;;;11.17;74.40;101822.09;5035225;28;20034;-47
2022/04/24 10:15:12;;;;;;;16.80;4.53;;;;;;;11.16;74.24;101823.09;5035448;28;20052;-45
2022/04/24 10:17:56;;;;;;;15.55;4.30;;;;;;;11.14;74.17;101817.94;5035534;28;20033;-46
2022/04/24 10:20:31;;;;;;;11.73;3.72;;;;;;;11.22;74.06;101817.00;5036056;28;20034;-46
2022/04/24 10:22:59;;;;;;;16.42;4.63;;;;;;;11.24;74.08;101818.47;5034792;28;20021;-46
2022/04/24 10:25:35;;;;;;;19.75;4.70;;;;;;;11.24;73.94;101809.59;5035375;28;20022;-46
2022/04/24 10:28:16;;;;;;;20.02;4.95;;;;;;;11.28;74.65;101818.94;5035364;28;20050;-46
2022/04/24 10:30:46;;;;;;;16.92;4.25;;;;;;;11.22;74.29;101812.47;5035213;28;20036;-49
2022/04/24 10:33:15;;;;;;;13.90;4.28;;;;;;;11.20;74.25;101808.31;5035033;28;20100;-47
2022/04/24 10:35:48;;;;;;;17.00;4.93;;;;;;;11.20;74.38;101814.50;5034999;28;20504;-48
2022/04/24 10:38:17;;;;;;;19.40;4.05;;;;;;;11.30;74.02;101814.22;5035135;28;20041;-47
2022/04/24 10:40:57;;;;;;;22.42;5.15;;;;;;;11.42;73.53;101810.03;5035047;28;20029;-46
2022/04/24 10:43:24;;;;;;;15.55;4.60;;;;;;;11.33;73.71;101809.31;5035049;28;20026;-47
2022/04/24 10:45:51;;;;;;;16.13;4.40;;;;;;;11.39;74.01;101809.59;5034930;28;20033;-45
2022/04/24 10:48:19;;;;;;;22.92;6.85;;;;;;;11.18;74.69;101813.03;5034640;28;20021;-47
2022/04/24 10:50:50;;;;;;;19.75;4.78;;;;;;;11.19;74.87;101812.00;5034493;28;20025;-46
2022/04/24 10:53:16;;;;;;;16.90;4.68;;;;;;;11.07;75.69;101812.47;5034915;28;20044;-45
2022/04/24 10:55:43;;;;;;;16.67;4.40;;;;;;;11.27;74.45;101812.75;5034465;28;20385;-47
2022/04/24 10:58:10;;;;;;;17.48;5.20;;;;;;;11.05;75.55;101811.84;5034725;28;20488;-45
2022/04/24 11:00:38;;;;;;;18.25;4.28;;;;;;;11.22;74.82;101807.13;5034334;28;20152;-45
2022/04/24 11:03:07;;;;;;;18.20;4.97;;;;;;;11.04;74.99;101815.53;5034572;28;20025;-46
2022/04/24 11:05:37;;;;;;;19.85;4.75;;;;;;;11.01;74.96;101815.09;5034595;28;20071;-46
2022/04/24 11:08:06;;;;;;;20.52;4.22;;;;;;;11.01;74.73;101815.09;5034308;28;20071;-47
2022/04/24 11:10:43;;;;;;;22.33;4.93;;;;;;;11.06;74.85;101815.34;5034441;28;20129;-47
2022/04/24 11:13:12;;;;;;;19.80;4.40;;;;;;;10.77;76.71;101810.81;5034399;28;20030;-45
2022/04/24 11:15:44;;;;;;;14.25;3.92;;;;;;;10.96;75.68;101820.16;5034850;28;20457;-47
2022/04/24 11:18:22;;;;;;;19.80;4.15;;;;;;;11.10;74.96;101825.53;5034309;28;20076;-46
2022/04/24 11:20:58;;;;;;;19.20;4.13;;;;;;;10.87;75.89;101826.59;5034260;28;20030;-45
2022/04/24 11:23:29;;;;;;;24.85;5.00;;;;;;;10.84;76.24;101814.44;5034351;28;20446;-46
2022/04/24 11:25:58;;;;;;;16.50;4.70;;;;;;;10.73;76.67;101818.38;5034173;28;20478;-47